Terminal Aerodrome Forecast
Issued by NWS

Home | Current Version | Previous Version | Graphics & Text | Print | Product List | Glossary On
Versions: 1 2 3 4 5 6 7 8 9 10 11 12 13 14 15 16 17 18 19 20 21 22
000
FTUS43 KMPX 041120
TAFAXN
TAF
KAXN 041120Z 0412/0512 VRB03KT 3SM BR HZ BKN250
      TEMPO 0412/0413 1SM BR HZ
     FM041400 15006KT 5SM HZ BKN250
     FM041800 18009KT 6SM HZ SCT040 BKN250
     FM050000 18010KT P6SM FEW250=

USA.gov is the U.S. government's official web portal to all federal, state and local government web resources and services.